Time;durP1;ratioP1;P1;durP2;ratioP2;P2;SDS_P1;SDS_P2;PMS_P1;PMS_P2;Temp;Humidity;BMP_temperature;BMP_pressure;BME280_temperature;BME280_humidity;BME280_pressure;Samples;Min_cycle;Max_cycle;Signal;HPM_P1;HPM_P2
2021/10/29 00:02:08;;;;;;;4.32;1.88;;;11.70;99.90;;;;;;5095133;28;20198;-79
2021/10/29 00:04:35;;;;;;;3.57;2.47;;;11.80;99.90;;;;;;5095779;28;20201;-79
2021/10/29 00:07:04;;;;;;;1.15;0.95;;;11.80;99.90;;;;;;5095105;28;20456;-78
2021/10/29 00:09:32;;;;;;;2.17;2.08;;;11.80;99.90;;;;;;5095154;28;20193;-79
2021/10/29 00:11:59;;;;;;;2.20;2.00;;;11.70;99.90;;;;;;5095472;28;20217;-77
2021/10/29 00:14:27;;;;;;;1.70;1.60;;;11.80;99.90;;;;;;5095276;28;20194;-79
2021/10/29 00:16:54;;;;;;;2.20;1.63;;;11.80;99.90;;;;;;5095160;28;20270;-79
2021/10/29 00:19:21;;;;;;;2.20;2.00;;;11.80;99.90;;;;;;5094986;28;20789;-77
2021/10/29 00:21:48;;;;;;;1.67;1.30;;;11.80;99.90;;;;;;5094876;28;20204;-78
2021/10/29 00:24:16;;;;;;;1.37;1.23;;;11.80;99.90;;;;;;5095460;28;20207;-79
2021/10/29 00:26:42;;;;;;;1.17;1.08;;;11.70;99.90;;;;;;5095242;28;20785;-78
2021/10/29 00:29:09;;;;;;;0.63;0.60;;;11.70;99.90;;;;;;5095138;28;20209;-80
2021/10/29 00:31:36;;;;;;;1.17;1.00;;;11.80;99.90;;;;;;5094695;28;20479;-76
2021/10/29 00:34:03;;;;;;;0.50;0.40;;;11.70;99.90;;;;;;5095349;28;20439;-78
2021/10/29 00:36:29;;;;;;;1.87;1.77;;;11.70;99.90;;;;;;5094831;28;20533;-79
2021/10/29 00:38:56;;;;;;;0.63;0.63;;;11.80;99.90;;;;;;5094483;28;20436;-76
2021/10/29 00:41:25;;;;;;;0.93;0.73;;;11.90;99.90;;;;;;5094876;28;20443;-78
2021/10/29 00:43:51;;;;;;;2.92;1.02;;;11.90;99.90;;;;;;5094416;28;20439;-79
2021/10/29 00:46:18;;;;;;;2.65;2.45;;;11.90;99.90;;;;;;5094587;28;20204;-78
2021/10/29 00:48:45;;;;;;;1.42;1.35;;;11.90;99.90;;;;;;5094981;28;20718;-78
2021/10/29 00:51:12;;;;;;;0.50;0.50;;;11.90;99.90;;;;;;5094072;28;20222;-79
2021/10/29 00:53:39;;;;;;;2.40;1.57;;;11.90;99.90;;;;;;5094614;28;20459;-77
2021/10/29 00:56:07;;;;;;;3.53;3.20;;;11.90;99.90;;;;;;5094261;28;20455;-78
2021/10/29 00:58:35;;;;;;;0.80;0.80;;;11.90;99.90;;;;;;5094358;28;20217;-79
2021/10/29 01:01:03;;;;;;;1.53;1.43;;;12.00;99.90;;;;;;5094278;28;20993;-77
2021/10/29 01:03:29;;;;;;;1.40;1.37;;;12.00;99.90;;;;;;5094817;28;20785;-79
2021/10/29 01:05:57;;;;;;;2.10;2.00;;;11.90;99.90;;;;;;5094375;28;20439;-78
2021/10/29 01:08:24;;;;;;;2.23;2.10;;;11.90;99.90;;;;;;5094097;28;20455;-79
2021/10/29 01:10:51;;;;;;;0.70;0.70;;;12.00;99.90;;;;;;5093578;28;20432;-79
2021/10/29 01:13:19;;;;;;;1.03;0.87;;;12.00;99.90;;;;;;5094178;28;20439;-79
2021/10/29 01:15:47;;;;;;;1.23;1.13;;;12.00;99.90;;;;;;5094160;28;20440;-78
2021/10/29 01:18:14;;;;;;;1.20;0.83;;;12.00;99.90;;;;;;5094383;28;20468;-78
2021/10/29 01:20:42;;;;;;;4.30;2.10;;;12.10;99.90;;;;;;5093561;28;20463;-80
2021/10/29 01:23:09;;;;;;;0.50;0.40;;;12.00;99.90;;;;;;5093986;28;20435;-79
2021/10/29 01:25:36;;;;;;;0.60;0.50;;;12.00;99.90;;;;;;5094200;28;20446;-77
2021/10/29 01:28:03;;;;;;;0.80;0.60;;;12.00;99.90;;;;;;5093655;28;21000;-78
2021/10/29 01:30:29;;;;;;;0.97;0.80;;;12.00;99.90;;;;;;5093844;28;20427;-79
2021/10/29 01:32:56;;;;;;;1.00;0.70;;;12.00;99.90;;;;;;5093673;28;20479;-78
2021/10/29 01:35:23;;;;;;;0.90;0.40;;;12.00;99.90;;;;;;5094008;28;20435;-78
2021/10/29 01:37:51;;;;;;;1.87;1.77;;;12.00;99.90;;;;;;5093281;28;20533;-79
2021/10/29 01:40:18;;;;;;;0.50;0.40;;;12.00;99.90;;;;;;5093688;28;20440;-78
2021/10/29 01:42:47;;;;;;;1.63;1.53;;;12.00;99.90;;;;;;5093372;28;20663;-78
2021/10/29 01:45:14;;;;;;;3.43;0.50;;;12.00;99.90;;;;;;5093603;28;20447;-78
2021/10/29 01:47:40;;;;;;;2.53;1.73;;;12.00;99.90;;;;;;5093755;28;20463;-79
2021/10/29 01:50:09;;;;;;;0.70;0.70;;;12.00;99.90;;;;;;5092723;28;20465;-79
2021/10/29 01:52:36;;;;;;;0.50;0.40;;;12.00;99.90;;;;;;5093666;28;20570;-78
2021/10/29 01:55:05;;;;;;;1.33;1.23;;;12.00;99.90;;;;;;5094256;28;20817;-79
2021/10/29 01:57:32;;;;;;;0.60;0.50;;;12.00;99.90;;;;;;5093078;28;20467;-76
2021/10/29 01:59:58;;;;;;;0.50;0.43;;;12.00;99.90;;;;;;5093093;28;20443;-78
2021/10/29 02:02:25;;;;;;;0.60;0.60;;;12.00;99.90;;;;;;5093209;28;20439;-79
2021/10/29 02:04:52;;;;;;;1.23;0.80;;;12.00;99.90;;;;;;5093410;28;20447;-79
2021/10/29 02:07:19;;;;;;;0.60;0.50;;;12.00;99.90;;;;;;5093325;28;20455;-78
2021/10/29 02:09:45;;;;;;;0.50;0.40;;;12.00;99.90;;;;;;5093082;28;20432;-79
2021/10/29 02:12:13;;;;;;;2.07;1.97;;;12.00;99.90;;;;;;5092490;28;20478;-79
2021/10/29 02:14:40;;;;;;;0.50;0.40;;;12.00;99.90;;;;;;5092826;28;20790;-74
2021/10/29 02:17:07;;;;;;;1.37;1.20;;;12.00;99.90;;;;;;5093462;28;20243;-79
2021/10/29 02:19:34;;;;;;;1.77;1.67;;;12.00;99.90;;;;;;5092586;28;20732;-75
2021/10/29 02:22:01;;;;;;;0.50;0.40;;;12.00;99.90;;;;;;5092712;28;20196;-78
2021/10/29 02:24:28;;;;;;;1.50;1.02;;;11.90;99.90;;;;;;5092941;28;20569;-78
2021/10/29 02:26:55;;;;;;;1.50;0.93;;;11.90;99.90;;;;;;5093246;28;20267;-78
2021/10/29 02:29:24;;;;;;;0.70;0.70;;;12.00;99.90;;;;;;5093057;28;20213;-78
2021/10/29 02:31:51;;;;;;;0.60;0.50;;;12.10;99.90;;;;;;5092777;28;20467;-78
2021/10/29 02:34:17;;;;;;;1.03;0.83;;;12.00;99.90;;;;;;5092689;28;20443;-78
2021/10/29 02:36:44;;;;;;;2.30;2.20;;;12.00;99.90;;;;;;5092758;28;20441;-79
2021/10/29 02:39:11;;;;;;;1.83;0.90;;;12.00;99.90;;;;;;5092871;28;20443;-78
2021/10/29 02:41:38;;;;;;;0.50;0.40;;;12.10;99.90;;;;;;5092334;28;20280;-78
2021/10/29 02:44:05;;;;;;;0.82;0.82;;;12.00;99.90;;;;;;5092653;28;20443;-78
2021/10/29 02:46:33;;;;;;;2.20;1.77;;;12.00;99.90;;;;;;5092837;28;20207;-78
2021/10/29 02:49:00;;;;;;;1.63;1.10;;;12.00;99.90;;;;;;5092573;28;20439;-79
2021/10/29 02:51:29;;;;;;;0.50;0.47;;;12.00;99.90;;;;;;5092236;28;20444;-79
2021/10/29 02:53:56;;;;;;;1.53;1.33;;;12.00;99.90;;;;;;5092341;28;20879;-78
2021/10/29 02:56:23;;;;;;;1.45;1.30;;;12.10;99.90;;;;;;5092716;28;20450;-79
2021/10/29 02:58:50;;;;;;;0.50;0.40;;;12.10;99.90;;;;;;5092469;28;20225;-78
2021/10/29 03:01:17;;;;;;;0.57;0.57;;;12.10;99.90;;;;;;5093265;28;20204;-80
2021/10/29 03:03:45;;;;;;;0.83;0.83;;;12.10;99.90;;;;;;5092574;28;20439;-79
2021/10/29 03:06:11;;;;;;;1.30;1.20;;;12.10;99.90;;;;;;5092581;28;20435;-78
2021/10/29 03:08:38;;;;;;;1.00;0.93;;;12.10;99.90;;;;;;5092431;28;20220;-78
2021/10/29 03:11:05;;;;;;;1.73;1.63;;;12.10;99.90;;;;;;5093494;28;20569;-78
2021/10/29 03:13:32;;;;;;;0.50;0.50;;;12.10;99.90;;;;;;5096086;28;20475;-79
2021/10/29 03:15:58;;;;;;;0.50;0.40;;;12.10;99.90;;;;;;5095640;28;20470;-77
2021/10/29 03:18:25;;;;;;;2.10;1.95;;;12.10;99.90;;;;;;5094731;28;20217;-77
2021/10/29 03:20:53;;;;;;;0.50;0.40;;;12.20;99.90;;;;;;5094589;28;20696;-78
2021/10/29 03:23:20;;;;;;;1.90;1.80;;;12.20;99.90;;;;;;5095344;28;20436;-78
2021/10/29 03:25:47;;;;;;;0.50;0.40;;;12.20;99.90;;;;;;5095421;28;20200;-77
2021/10/29 03:28:14;;;;;;;1.53;1.37;;;12.10;99.90;;;;;;5094896;28;20221;-77
2021/10/29 03:30:41;;;;;;;2.87;0.90;;;12.20;99.90;;;;;;5094632;28;20443;-77
2021/10/29 03:33:09;;;;;;;0.50;0.40;;;12.10;99.90;;;;;;5093974;28;20477;-77
2021/10/29 03:35:36;;;;;;;1.55;0.80;;;12.10;99.90;;;;;;5081726;28;20367;-77
2021/10/29 03:38:14;;;;;;;1.27;1.25;;;12.10;99.90;;;;;;5092965;28;20239;-76
2021/10/29 03:40:48;;;;;;;1.10;1.02;;;12.10;99.90;;;;;;5093914;28;20201;-77
2021/10/29 03:43:20;;;;;;;0.50;0.40;;;12.10;99.90;;;;;;5094118;28;20231;-77
2021/10/29 03:45:50;;;;;;;1.47;1.37;;;12.10;99.90;;;;;;5094256;28;20473;-78
2021/10/29 03:48:19;;;;;;;0.50;0.40;;;12.10;99.90;;;;;;5094776;28;20464;-76
2021/10/29 03:50:59;;;;;;;0.73;0.50;;;12.10;99.90;;;;;;5093153;28;20989;-77
2021/10/29 03:53:32;;;;;;;3.67;2.53;;;12.20;99.90;;;;;;5076996;28;20683;-76
2021/10/29 03:56:00;;;;;;;0.50;0.40;;;12.20;99.90;;;;;;5074311;28;20474;-78
2021/10/29 03:58:27;;;;;;;1.30;1.03;;;12.20;99.90;;;;;;5074053;28;20460;-77
2021/10/29 04:00:54;;;;;;;1.13;1.03;;;12.20;99.90;;;;;;5074015;28;20441;-76
2021/10/29 04:03:20;;;;;;;1.03;1.03;;;12.20;99.90;;;;;;5074031;28;20642;-78
2021/10/29 04:05:47;;;;;;;1.63;1.50;;;12.20;99.90;;;;;;5074048;28;20451;-78
2021/10/29 04:08:14;;;;;;;1.23;0.97;;;12.20;99.90;;;;;;5073928;28;20468;-77
2021/10/29 04:10:44;;;;;;;0.83;0.83;;;12.20;99.90;;;;;;5073241;28;20969;-77
2021/10/29 04:13:11;;;;;;;0.63;0.63;;;12.30;99.90;;;;;;5073750;28;21164;-77
2021/10/29 04:15:40;;;;;;;0.67;0.67;;;12.20;99.90;;;;;;5073768;28;20964;-77
2021/10/29 04:18:08;;;;;;;4.00;1.73;;;12.20;99.90;;;;;;5073759;28;20551;-76
2021/10/29 04:20:34;;;;;;;0.80;0.80;;;12.30;99.90;;;;;;5073588;28;20440;-77
2021/10/29 04:23:01;;;;;;;3.90;1.80;;;12.30;99.90;;;;;;5073136;28;20822;-77
2021/10/29 04:25:28;;;;;;;6.63;1.60;;;12.30;99.90;;;;;;5073528;28;20447;-77
2021/10/29 04:27:59;;;;;;;1.20;1.20;;;12.40;99.90;;;;;;5073475;28;20482;-77
2021/10/29 04:30:28;;;;;;;1.03;0.93;;;12.40;99.90;;;;;;5093317;28;20825;-77
2021/10/29 04:32:54;;;;;;;0.50;0.40;;;12.40;99.90;;;;;;5093114;28;20849;-79
2021/10/29 04:35:21;;;;;;;0.60;0.50;;;12.40;99.90;;;;;;5093263;28;20440;-78
2021/10/29 04:37:48;;;;;;;8.88;0.95;;;12.30;99.90;;;;;;5093630;28;20224;-77
2021/10/29 04:40:15;;;;;;;9.00;3.07;;;12.30;99.90;;;;;;5093531;28;20576;-79
2021/10/29 04:42:42;;;;;;;2.40;2.30;;;12.30;99.90;;;;;;5093706;28;20435;-77
2021/10/29 04:45:11;;;;;;;0.55;0.40;;;12.30;99.90;;;;;;5093281;28;20965;-77
2021/10/29 04:47:38;;;;;;;0.60;0.50;;;12.30;99.90;;;;;;5093228;28;20592;-77
2021/10/29 04:50:06;;;;;;;0.50;0.40;;;12.30;99.90;;;;;;5092157;28;20450;-78
2021/10/29 04:52:33;;;;;;;3.73;2.40;;;12.30;99.90;;;;;;5093158;28;20477;-77
2021/10/29 04:55:00;;;;;;;0.73;0.70;;;12.40;99.90;;;;;;5093122;28;20980;-79
2021/10/29 04:57:27;;;;;;;3.50;1.70;;;12.30;99.90;;;;;;5093435;28;20462;-77
2021/10/29 04:59:54;;;;;;;0.87;0.80;;;12.30;99.90;;;;;;5093162;28;20805;-77
2021/10/29 05:02:22;;;;;;;0.50;0.30;;;12.30;99.90;;;;;;5092881;28;20431;-78
2021/10/29 05:04:48;;;;;;;0.50;0.40;;;12.20;99.90;;;;;;5092870;28;20439;-77
2021/10/29 05:07:15;;;;;;;0.63;0.50;;;12.20;99.90;;;;;;5093451;28;20462;-77
2021/10/29 05:09:42;;;;;;;0.80;0.73;;;12.20;99.90;;;;;;5092398;28;20198;-77
2021/10/29 05:12:09;;;;;;;0.50;0.40;;;12.20;99.90;;;;;;5092012;28;20436;-77
2021/10/29 05:14:36;;;;;;;2.55;0.93;;;12.20;99.90;;;;;;5087522;28;20570;-76
2021/10/29 05:17:03;;;;;;;0.50;0.40;;;12.20;99.90;;;;;;5092366;28;20205;-77
2021/10/29 05:19:31;;;;;;;0.60;0.50;;;12.20;99.90;;;;;;5092224;28;20204;-77
2021/10/29 05:21:58;;;;;;;0.90;0.90;;;12.20;99.90;;;;;;5092520;28;20520;-77
2021/10/29 05:24:24;;;;;;;2.20;0.97;;;12.20;99.90;;;;;;5092320;28;20443;-77
2021/10/29 05:26:51;;;;;;;1.63;1.52;;;12.20;99.90;;;;;;5092258;28;20467;-77
2021/10/29 05:29:18;;;;;;;0.70;0.70;;;12.20;99.90;;;;;;5092438;28;20205;-77
2021/10/29 05:31:45;;;;;;;1.13;1.03;;;12.20;99.90;;;;;;5091642;28;20449;-78
2021/10/29 05:34:12;;;;;;;2.80;2.55;;;12.20;99.90;;;;;;5090843;28;20478;-77
2021/10/29 05:36:40;;;;;;;0.50;0.40;;;12.20;99.90;;;;;;5092027;28;20221;-77
2021/10/29 05:39:08;;;;;;;0.60;0.50;;;12.30;99.90;;;;;;5092369;28;20477;-77
2021/10/29 05:41:35;;;;;;;1.30;0.60;;;12.30;99.90;;;;;;5091533;28;20270;-77
2021/10/29 05:44:02;;;;;;;0.60;0.50;;;12.30;99.90;;;;;;5091458;28;20197;-77
2021/10/29 05:46:31;;;;;;;1.17;1.17;;;12.30;99.90;;;;;;5092069;28;20201;-77
2021/10/29 05:48:58;;;;;;;1.70;1.60;;;12.40;99.90;;;;;;5092255;28;20440;-77
2021/10/29 05:51:26;;;;;;;3.70;0.50;;;12.40;99.90;;;;;;5091113;28;20440;-78
2021/10/29 05:54:08;;;;;;;1.50;1.40;;;12.40;99.90;;;;;;5091715;28;20589;-76
2021/10/29 05:56:35;;;;;;;0.70;0.70;;;12.40;99.90;;;;;;5091797;28;20439;-77
2021/10/29 05:59:04;;;;;;;0.60;0.60;;;12.40;99.90;;;;;;5091648;28;20455;-78
2021/10/29 06:01:31;;;;;;;1.10;0.80;;;12.30;99.90;;;;;;5091549;28;20504;-77
2021/10/29 06:03:58;;;;;;;0.70;0.70;;;12.30;99.90;;;;;;5091928;28;20440;-77
2021/10/29 06:06:24;;;;;;;0.50;0.40;;;12.30;99.90;;;;;;5091641;28;20936;-77
2021/10/29 06:08:51;;;;;;;1.90;1.37;;;12.40;99.90;;;;;;5091962;28;20513;-78
2021/10/29 06:11:20;;;;;;;1.97;1.80;;;12.40;99.90;;;;;;5091537;28;20454;-78
2021/10/29 06:13:47;;;;;;;1.27;1.17;;;12.40;99.90;;;;;;5087010;28;20494;-78
2021/10/29 06:16:13;;;;;;;0.50;0.40;;;12.50;99.90;;;;;;5091734;28;20447;-77
2021/10/29 06:18:41;;;;;;;0.50;0.40;;;12.50;99.90;;;;;;5091819;28;20451;-77
2021/10/29 06:21:09;;;;;;;1.73;1.23;;;12.50;99.90;;;;;;5092734;28;20451;-78
2021/10/29 06:23:42;;;;;;;0.50;0.40;;;12.50;99.90;;;;;;5090847;28;20438;-78
2021/10/29 06:26:19;;;;;;;0.77;0.77;;;12.60;99.90;;;;;;5091614;28;20436;-77
2021/10/29 06:28:48;;;;;;;0.50;0.50;;;12.60;99.90;;;;;;5090868;28;20558;-77
2021/10/29 06:31:16;;;;;;;0.50;0.40;;;12.60;99.90;;;;;;5090771;28;20526;-78
2021/10/29 06:33:43;;;;;;;0.83;0.83;;;12.60;99.90;;;;;;5090986;28;20924;-77
2021/10/29 06:36:10;;;;;;;0.60;0.47;;;12.70;99.90;;;;;;5091619;28;20967;-77
2021/10/29 06:38:40;;;;;;;2.90;2.70;;;12.70;99.90;;;;;;5090961;28;20456;-76
2021/10/29 06:41:06;;;;;;;0.73;0.73;;;12.60;99.90;;;;;;5091389;28;20471;-77
2021/10/29 06:43:37;;;;;;;0.60;0.60;;;12.60;99.90;;;;;;5090798;28;20446;-77
2021/10/29 06:46:24;;;;;;;1.27;1.17;;;12.60;99.90;;;;;;5094513;28;20435;-76
2021/10/29 06:49:06;;;;;;;2.87;2.77;;;12.60;99.90;;;;;;5095600;28;20231;-76
2021/10/29 06:59:59;;;;;;;17.80;2.40;;;12.60;99.90;;;;;;5095174;28;20785;-78
2021/10/29 07:40:51;;;;;;;3.70;2.97;;;13.70;99.90;;;;;;5084344;28;21033;-77
2021/10/29 07:43:26;;;;;;;0.50;0.40;;;13.90;99.90;;;;;;5094754;28;20775;-78
2021/10/29 07:45:53;;;;;;;0.50;0.40;;;14.20;99.90;;;;;;5094258;28;20454;-76
2021/10/29 07:48:20;;;;;;;0.50;0.40;;;14.70;99.90;;;;;;5094454;28;20463;-78
2021/10/29 07:50:48;;;;;;;1.30;1.23;;;14.90;99.90;;;;;;5093395;28;20538;-75
2021/10/29 07:53:15;;;;;;;0.50;0.40;;;15.40;99.90;;;;;;5093710;28;20469;-76
2021/10/29 07:55:41;;;;;;;1.27;1.17;;;15.80;99.90;;;;;;5093518;28;20822;-77
2021/10/29 07:58:08;;;;;;;3.33;0.83;;;15.60;99.90;;;;;;5093438;28;20447;-75
2021/10/29 08:00:35;;;;;;;0.80;0.67;;;15.60;99.90;;;;;;5093523;28;20444;-76
2021/10/29 08:03:05;;;;;;;0.50;0.40;;;15.90;99.90;;;;;;5093892;28;20968;-76
2021/10/29 08:05:32;;;;;;;0.67;0.67;;;16.30;99.90;;;;;;5094035;28;20472;-76
2021/10/29 08:08:01;;;;;;;0.70;0.50;;;16.50;99.90;;;;;;5093886;28;20535;-76
2021/10/29 08:10:28;;;;;;;0.60;0.50;;;16.60;99.90;;;;;;5093682;28;20444;-76
2021/10/29 08:12:54;;;;;;;0.90;0.90;;;16.60;99.90;;;;;;5093096;28;20529;-76
2021/10/29 08:15:21;;;;;;;0.73;0.73;;;16.90;99.90;;;;;;5093731;28;20433;-76
2021/10/29 08:17:48;;;;;;;0.83;0.83;;;17.40;99.90;;;;;;5093882;28;20457;-77
2021/10/29 08:20:16;;;;;;;3.00;1.40;;;17.90;99.90;;;;;;5093597;28;20443;-77
2021/10/29 08:22:44;;;;;;;0.50;0.40;;;18.00;99.90;;;;;;5093538;28;20445;-76
2021/10/29 08:25:14;;;;;;;1.90;1.37;;;18.30;99.90;;;;;;5093733;28;20434;-78
2021/10/29 08:27:41;;;;;;;2.83;1.60;;;19.30;99.90;;;;;;5093281;28;20497;-78
2021/10/29 08:30:09;;;;;;;1.40;1.40;;;19.70;99.90;;;;;;5093308;28;20507;-77
2021/10/29 08:32:38;;;;;;;4.10;3.23;;;19.90;99.90;;;;;;5093170;28;20441;-77
2021/10/29 08:35:06;;;;;;;0.50;0.40;;;19.50;98.60;;;;;;5093090;28;20474;-77
2021/10/29 08:37:33;;;;;;;0.60;0.57;;;19.90;98.80;;;;;;5093428;28;20498;-78
2021/10/29 08:40:00;;;;;;;1.40;0.73;;;20.30;96.70;;;;;;5093354;28;20496;-78
2021/10/29 08:42:29;;;;;;;1.63;1.23;;;20.30;93.90;;;;;;5092790;28;20458;-77
2021/10/29 08:44:55;;;;;;;0.50;0.30;;;19.80;94.70;;;;;;5093327;28;20438;-76
2021/10/29 08:47:24;;;;;;;0.57;0.47;;;19.10;98.50;;;;;;5093336;28;20472;-78
2021/10/29 08:49:52;;;;;;;0.80;0.80;;;18.90;99.90;;;;;;5091970;28;20441;-77
2021/10/29 08:52:22;;;;;;;1.33;1.23;;;18.40;99.90;;;;;;5092588;28;20440;-77
2021/10/29 08:54:50;;;;;;;0.60;0.40;;;18.00;99.90;;;;;;5093044;28;20570;-77
2021/10/29 08:57:17;;;;;;;3.13;1.57;;;17.20;99.90;;;;;;5092572;28;20464;-76
2021/10/29 08:59:49;;;;;;;0.60;0.53;;;16.20;99.90;;;;;;5108821;22;20446;-75
2021/10/29 09:02:20;;;;;;;0.80;0.80;;;16.10;99.90;;;;;;5029283;28;20457;-76
2021/10/29 09:04:52;;;;;;;1.37;1.27;;;16.20;99.90;;;;;;5050670;28;20437;-78
2021/10/29 09:07:36;;;;;;;3.70;2.43;;;16.40;99.90;;;;;;5053522;28;20433;-77
2021/10/29 09:32:22;;;;;;;0.57;0.50;;;16.50;99.90;;;;;;5054478;28;20723;-78
2021/10/29 09:34:58;;;;;;;0.80;0.60;;;16.20;99.90;;;;;;5055017;28;20954;-78
2021/10/29 09:37:34;;;;;;;0.50;0.50;;;16.30;99.90;;;;;;5054942;28;20445;-79
2021/10/29 09:40:02;;;;;;;0.60;0.50;;;16.30;99.90;;;;;;5054722;28;20903;-79
2021/10/29 09:42:36;;;;;;;0.50;0.40;;;16.40;99.90;;;;;;5055147;28;20437;-78
2021/10/29 09:45:13;;;;;;;2.93;1.60;;;16.60;99.90;;;;;;5054920;28;20442;-78
2021/10/29 09:47:46;;;;;;;0.70;0.70;;;16.80;99.90;;;;;;5055253;28;20441;-78
2021/10/29 09:50:23;;;;;;;1.50;0.97;;;16.90;99.90;;;;;;5053954;28;20470;-78
2021/10/29 09:53:09;;;;;;;0.50;0.37;;;17.10;99.90;;;;;;5054098;28;20482;-79
2021/10/29 09:55:50;;;;;;;0.50;0.40;;;17.30;99.90;;;;;;5054507;28;21011;-79
2021/10/29 09:58:18;;;;;;;0.60;0.57;;;17.20;99.90;;;;;;5055135;28;20926;-79
2021/10/29 10:00:45;;;;;;;2.40;0.70;;;17.20;99.90;;;;;;5054345;28;20471;-78
2021/10/29 10:03:16;;;;;;;0.50;0.40;;;17.10;99.90;;;;;;5053916;28;20460;-78
2021/10/29 10:05:44;;;;;;;0.67;0.67;;;17.20;99.90;;;;;;5054722;28;20932;-78
2021/10/29 10:08:12;;;;;;;1.30;1.20;;;17.40;99.90;;;;;;5054188;28;20467;-78
2021/10/29 10:10:43;;;;;;;0.50;0.30;;;17.50;99.90;;;;;;5053886;28;20500;-78
2021/10/29 10:13:11;;;;;;;2.40;1.07;;;17.30;99.90;;;;;;5054134;28;20460;-78
2021/10/29 10:15:39;;;;;;;0.50;0.40;;;17.50;99.90;;;;;;5054834;28;20479;-79
2021/10/29 10:18:06;;;;;;;0.70;0.70;;;17.50;99.90;;;;;;5054326;28;20452;-79
2021/10/29 10:20:34;;;;;;;1.43;0.60;;;17.80;99.90;;;;;;5053281;28;20462;-78
2021/10/29 10:23:05;;;;;;;0.93;0.80;;;18.10;99.90;;;;;;5050968;28;20447;-79
2021/10/29 10:25:42;;;;;;;0.60;0.40;;;18.10;99.90;;;;;;5044468;28;20440;-79
2021/10/29 10:31:15;;;;;;;0.87;0.70;;;18.10;99.90;;;;;;5051395;28;20485;-79
2021/10/29 10:45:18;;;;;;;0.50;0.30;;;18.20;99.90;;;;;;5053044;28;20462;-78
2021/10/29 10:47:51;;;;;;;0.50;0.40;;;18.20;99.90;;;;;;5054322;28;20444;-77
2021/10/29 10:50:21;;;;;;;3.60;1.03;;;18.70;99.90;;;;;;5053396;28;20467;-79
2021/10/29 10:53:22;;;;;;;0.50;0.30;;;18.70;99.90;;;;;;5054035;28;20441;-78
2021/10/29 10:55:59;;;;;;;0.50;0.30;;;18.90;99.90;;;;;;5054097;28;20467;-78
2021/10/29 10:58:34;;;;;;;2.20;1.33;;;18.80;99.90;;;;;;5054685;28;20795;-78
2021/10/29 11:01:14;;;;;;;0.50;0.40;;;18.70;99.90;;;;;;5053290;28;20495;-79
2021/10/29 11:04:16;;;;;;;0.50;0.40;;;18.20;99.90;;;;;;5055850;28;20484;-78
2021/10/29 11:07:10;;;;;;;0.50;0.40;;;17.70;99.90;;;;;;5054813;28;20453;-78
2021/10/29 11:09:54;;;;;;;0.50;0.30;;;17.30;99.90;;;;;;5052943;28;20447;-79
2021/10/29 11:12:21;;;;;;;0.50;0.40;;;17.50;99.90;;;;;;5053578;28;20861;-79
2021/10/29 11:15:06;;;;;;;0.50;0.40;;;17.70;99.90;;;;;;5054469;28;20501;-79
2021/10/29 11:17:44;;;;;;;0.70;0.63;;;17.70;99.90;;;;;;5053374;28;20466;-78
2021/10/29 11:20:12;;;;;;;0.50;0.40;;;17.70;99.90;;;;;;5052330;28;20553;-78
2021/10/29 11:22:44;;;;;;;1.53;1.43;;;17.70;99.90;;;;;;5052248;28;20493;-79
2021/10/29 11:25:14;;;;;;;0.63;0.57;;;17.70;99.90;;;;;;5053221;28;20453;-77
2021/10/29 11:27:42;;;;;;;0.63;0.63;;;17.60;99.90;;;;;;5052317;28;20906;-77
2021/10/29 11:30:10;;;;;;;0.50;0.30;;;17.40;99.90;;;;;;5051752;28;20466;-78
2021/10/29 11:32:38;;;;;;;0.50;0.40;;;17.10;99.90;;;;;;5053616;28;20437;-77
2021/10/29 11:35:06;;;;;;;0.50;0.40;;;17.20;99.90;;;;;;5055564;28;20884;-77
2021/10/29 11:37:36;;;;;;;2.87;0.93;;;17.30;99.90;;;;;;5055504;28;20557;-78
2021/10/29 11:40:04;;;;;;;0.70;0.40;;;17.50;99.90;;;;;;5056286;28;20457;-77
2021/10/29 11:42:33;;;;;;;0.50;0.40;;;17.70;99.90;;;;;;5055983;28;20457;-79
2021/10/29 11:45:03;;;;;;;1.20;0.60;;;18.40;99.90;;;;;;5056521;28;20438;-78
2021/10/29 11:47:31;;;;;;;0.70;0.70;;;18.30;99.90;;;;;;5056460;28;20490;-78
2021/10/29 11:50:07;;;;;;;3.17;0.97;;;18.00;99.90;;;;;;5055761;28;20464;-78
2021/10/29 11:52:35;;;;;;;0.50;0.30;;;17.80;99.90;;;;;;5055964;28;20437;-78
2021/10/29 11:55:02;;;;;;;1.93;1.37;;;17.60;99.90;;;;;;5057065;28;20578;-78
2021/10/29 11:57:42;;;;;;;0.80;0.80;;;17.40;99.90;;;;;;5056299;28;20450;-77
2021/10/29 12:00:20;;;;;;;0.70;0.60;;;17.40;99.90;;;;;;5055825;28;20481;-77
2021/10/29 12:05:54;;;;;;;1.60;0.83;;;17.20;99.90;;;;;;5056587;28;20426;-78
2021/10/29 12:08:23;;;;;;;1.27;0.70;;;17.20;99.90;;;;;;5055154;28;20446;-77
2021/10/29 12:10:51;;;;;;;0.80;0.70;;;17.20;99.90;;;;;;5056433;28;20839;-78
2021/10/29 12:13:18;;;;;;;0.50;0.40;;;17.20;99.90;;;;;;5055251;28;20443;-77
2021/10/29 12:15:46;;;;;;;0.60;0.50;;;17.30;99.90;;;;;;5055876;28;20583;-77
2021/10/29 12:18:14;;;;;;;0.50;0.30;;;17.20;99.90;;;;;;5056025;28;20445;-78
2021/10/29 12:20:45;;;;;;;0.60;0.60;;;17.20;99.90;;;;;;5055975;28;20972;-79
2021/10/29 12:23:21;;;;;;;2.80;2.57;;;17.10;99.90;;;;;;5056056;28;20426;-77
2021/10/29 12:25:57;;;;;;;0.50;0.40;;;17.10;99.90;;;;;;5056919;28;20442;-78
2021/10/29 12:28:28;;;;;;;0.50;0.30;;;17.30;99.90;;;;;;5056738;28;20446;-77
2021/10/29 12:30:59;;;;;;;0.50;0.30;;;17.40;99.90;;;;;;5056279;28;20454;-78
2021/10/29 12:33:56;;;;;;;1.00;0.50;;;17.40;99.90;;;;;;5056461;28;20432;-75
2021/10/29 12:59:17;;;;;;;0.60;0.40;;;17.00;99.90;;;;;;4994420;28;20422;-79
2021/10/29 13:01:53;;;;;;;0.50;0.40;;;17.00;99.90;;;;;;4994194;28;20509;-78
2021/10/29 13:04:23;;;;;;;0.50;0.30;;;17.10;99.90;;;;;;5033173;28;20926;-79
2021/10/29 13:06:52;;;;;;;0.50;0.30;;;17.10;99.90;;;;;;5055819;28;20862;-78
2021/10/29 13:09:21;;;;;;;0.50;0.50;;;17.10;99.90;;;;;;5055110;28;20447;-79
2021/10/29 13:11:52;;;;;;;2.30;1.73;;;17.10;99.90;;;;;;5055127;28;20839;-79
2021/10/29 13:14:27;;;;;;;0.50;0.30;;;17.10;99.90;;;;;;5055600;28;20427;-78
2021/10/29 13:16:55;;;;;;;0.60;0.40;;;17.20;99.90;;;;;;5055493;28;20533;-78
2021/10/29 13:19:33;;;;;;;0.50;0.40;;;17.10;99.90;;;;;;5055565;28;20471;-79
2021/10/29 13:52:33;;;;;;;0.73;0.73;;;18.60;99.90;;;;;;5055186;28;20446;-79
2021/10/29 13:55:11;;;;;;;0.70;0.70;;;18.70;99.90;;;;;;5054456;28;20474;-79
2021/10/29 13:57:58;;;;;;;0.50;0.40;;;18.60;99.90;;;;;;5055093;28;20448;-79
2021/10/29 14:03:35;;;;;;;1.07;1.07;;;18.80;99.90;;;;;;5053437;28;20781;-79
2021/10/29 14:28:15;;;;;;;1.63;0.40;;;18.60;99.90;;;;;;5021408;28;20430;-78
2021/10/29 14:30:48;;;;;;;5.07;2.80;;;18.60;99.90;;;;;;5054391;28;20464;-78
2021/10/29 14:33:18;;;;;;;0.50;0.30;;;18.40;99.90;;;;;;5054144;28;20448;-78
2021/10/29 14:35:49;;;;;;;0.50;0.40;;;18.50;99.90;;;;;;5054673;28;20518;-78
2021/10/29 14:38:21;;;;;;;0.60;0.60;;;18.50;99.90;;;;;;5054168;28;20435;-79
2021/10/29 14:40:52;;;;;;;0.60;0.40;;;18.40;99.90;;;;;;5054250;28;20455;-79
2021/10/29 14:43:22;;;;;;;0.90;0.90;;;18.10;99.90;;;;;;5055034;28;20427;-79
2021/10/29 14:45:58;;;;;;;0.73;0.40;;;18.10;99.90;;;;;;5054302;28;20481;-78
2021/10/29 14:48:37;;;;;;;0.50;0.40;;;18.00;99.90;;;;;;5054455;28;20447;-79
2021/10/29 14:51:22;;;;;;;0.50;0.30;;;18.00;99.90;;;;;;5053488;28;20474;-79
2021/10/29 15:02:41;;;;;;;0.80;0.57;;;18.00;99.90;;;;;;5050975;22;21032;-82
2021/10/29 15:16:45;;;;;;;0.80;0.50;;;17.60;99.90;;;;;;5058398;28;20453;-82
2021/10/29 15:27:41;;;;;;;0.70;0.50;;;16.90;99.90;;;;;;5058036;28;20420;-83
2021/10/29 15:30:13;;;;;;;0.90;0.50;;;16.80;99.90;;;;;;5057481;28;20958;-83
2021/10/29 15:32:54;;;;;;;0.50;0.40;;;16.60;99.90;;;;;;5057941;28;21037;-82
2021/10/29 15:43:50;;;;;;;0.50;0.40;;;16.30;99.90;;;;;;5057405;28;20558;-82
2021/10/29 15:46:22;;;;;;;0.50;0.40;;;16.20;99.90;;;;;;5059053;28;20830;-84
2021/10/29 15:48:54;;;;;;;0.50;0.30;;;16.10;99.90;;;;;;5057863;28;20430;-82
2021/10/29 15:51:21;;;;;;;0.50;0.30;;;16.00;99.90;;;;;;5056860;28;20628;-82
2021/10/29 15:53:47;;;;;;;0.80;0.80;;;16.00;99.90;;;;;;5057403;28;20483;-82
2021/10/29 15:56:23;;;;;;;0.50;0.40;;;15.90;99.90;;;;;;5058102;28;20475;-82
2021/10/29 15:58:57;;;;;;;9.83;1.23;;;15.90;99.90;;;;;;5057521;28;20437;-83
2021/10/29 16:01:32;;;;;;;1.37;1.27;;;15.90;99.90;;;;;;5056821;28;20473;-82
2021/10/29 16:04:08;;;;;;;0.50;0.50;;;15.80;99.90;;;;;;5057171;28;20461;-80
2021/10/29 16:17:35;;;;;;;0.70;0.70;;;15.40;99.90;;;;;;5060056;28;20417;-83
2021/10/29 16:20:03;;;;;;;0.60;0.50;;;15.40;99.90;;;;;;5058087;28;20445;-83
2021/10/29 16:22:33;;;;;;;0.50;0.33;;;15.30;99.90;;;;;;5058187;28;20454;-84
2021/10/29 16:25:04;;;;;;;0.70;0.70;;;15.30;99.90;;;;;;5058455;28;20942;-83
2021/10/29 16:27:40;;;;;;;0.50;0.30;;;15.30;99.90;;;;;;5058391;28;20425;-83
2021/10/29 16:30:07;;;;;;;0.50;0.30;;;15.30;99.90;;;;;;5057697;28;20441;-83
2021/10/29 16:35:34;;;;;;;0.80;0.70;;;15.30;99.90;;;;;;5015427;28;20885;-82
2021/10/29 16:38:02;;;;;;;0.50;0.40;;;15.20;99.90;;;;;;5049522;28;20471;-83